KGLW/GLW METAR and TAF weather

Enter ICAO airport designator
Station Type Date Time Source
KGLW METAR 2020/09/18 20:15 UTC NOAA

KGLW 182015Z AUTO 04008KT 360V080 10SM CLR 22/10 A3014 RMK AO2 T02220104


Station Type Date Time Source
KGLW Decoded METAR 2020/09/18 20:15 UTC NOAA

Glasgow, Glasgow Municipal Airport, KY, United States (KGLW) 37-01-54N 085-57-13W
Sep 18, 2020 - 04:15 PM EDT / 2020.09.18 2015 UTC
Wind: from the NE (040 degrees) at 9 MPH (8 KT) (direction variable):0
Visibility: 10 mile(s):0
Sky conditions: clear
Temperature: 72.0 F (22.2 C)
Dew Point: 50.7 F (10.4 C)
Relative Humidity: 47%
Pressure (altimeter): 30.14 in. Hg (1020 hPa)
ob: KGLW 182015Z AUTO 04008KT 360V080 10SM CLR 22/10 A3014 RMK AO2 T02220104
cycle: 20

Station Type Date Time Source
KGLW TAF UTC NOAA

Error!

Example: see airport list